sensor_id;sensor_type;location;lat;lon;timestamp;pressure;altitude;pressure_sealevel;temperature;humidity
5284;BME280;15377;48.540;9.268;2023-05-09T00:00:05;97664.28;;;12.97;100.00
5284;BME280;15377;48.540;9.268;2023-05-09T00:02:31;97678.63;;;13.01;100.00
5284;BME280;15377;48.540;9.268;2023-05-09T00:04:59;97667.03;;;12.97;100.00
5284;BME280;15377;48.540;9.268;2023-05-09T00:07:25;97676.25;;;12.94;100.00
5284;BME280;15377;48.540;9.268;2023-05-09T00:09:50;97677.81;;;12.95;100.00
5284;BME280;15377;48.540;9.268;2023-05-09T00:12:15;97663.53;;;12.82;100.00
5284;BME280;15377;48.540;9.268;2023-05-09T00:14:41;97656.22;;;12.79;100.00
5284;BME280;15377;48.540;9.268;2023-05-09T00:17:09;97672.00;;;12.78;100.00
5284;BME280;15377;48.540;9.268;2023-05-09T00:19:34;97668.38;;;12.72;100.00
5284;BME280;15377;48.540;9.268;2023-05-09T00:22:00;97670.09;;;12.70;100.00
5284;BME280;15377;48.540;9.268;2023-05-09T00:24:25;97639.50;;;12.39;100.00
5284;BME280;15377;48.540;9.268;2023-05-09T00:26:51;97667.19;;;12.59;100.00
5284;BME280;15377;48.540;9.268;2023-05-09T00:29:16;97659.88;;;12.56;100.00
5284;BME280;15377;48.540;9.268;2023-05-09T00:31:41;97654.34;;;12.56;100.00
5284;BME280;15377;48.540;9.268;2023-05-09T00:34:07;97670.53;;;12.48;100.00
5284;BME280;15377;48.540;9.268;2023-05-09T00:36:32;97658.44;;;12.46;100.00
5284;BME280;15377;48.540;9.268;2023-05-09T00:38:57;97653.59;;;12.41;100.00
5284;BME280;15377;48.540;9.268;2023-05-09T00:41:23;97662.72;;;12.32;100.00
5284;BME280;15377;48.540;9.268;2023-05-09T00:43:48;97657.59;;;12.25;100.00
5284;BME280;15377;48.540;9.268;2023-05-09T00:46:13;97655.03;;;12.22;100.00
5284;BME280;15377;48.540;9.268;2023-05-09T00:48:39;97640.97;;;12.05;100.00
5284;BME280;15377;48.540;9.268;2023-05-09T00:51:05;97641.91;;;12.02;100.00
5284;BME280;15377;48.540;9.268;2023-05-09T00:53:30;97645.72;;;12.05;100.00
5284;BME280;15377;48.540;9.268;2023-05-09T00:55:56;97634.13;;;12.01;100.00
5284;BME280;15377;48.540;9.268;2023-05-09T00:58:24;97635.34;;;12.00;100.00
5284;BME280;15377;48.540;9.268;2023-05-09T01:00:49;97620.03;;;11.99;100.00
5284;BME280;15377;48.540;9.268;2023-05-09T01:03:15;97625.63;;;11.90;100.00
5284;BME280;15377;48.540;9.268;2023-05-09T01:05:55;97631.34;;;11.86;100.00
5284;BME280;15377;48.540;9.268;2023-05-09T01:08:33;97630.97;;;11.79;100.00
5284;BME280;15377;48.540;9.268;2023-05-09T01:16:38;97632.28;;;11.69;100.00
5284;BME280;15377;48.540;9.268;2023-05-09T01:19:34;97644.75;;;11.79;100.00
5284;BME280;15377;48.540;9.268;2023-05-09T01:22:05;97637.03;;;11.83;100.00
5284;BME280;15377;48.540;9.268;2023-05-09T01:27:27;97638.59;;;11.98;100.00
5284;BME280;15377;48.540;9.268;2023-05-09T01:29:58;97639.72;;;12.06;100.00
5284;BME280;15377;48.540;9.268;2023-05-09T01:32:27;97638.69;;;12.04;100.00
5284;BME280;15377;48.540;9.268;2023-05-09T01:34:55;97633.44;;;12.06;100.00
5284;BME280;15377;48.540;9.268;2023-05-09T01:37:29;97627.38;;;12.02;100.00
5284;BME280;15377;48.540;9.268;2023-05-09T01:39:59;97623.91;;;12.07;100.00
5284;BME280;15377;48.540;9.268;2023-05-09T01:42:30;97631.25;;;12.10;100.00
5284;BME280;15377;48.540;9.268;2023-05-09T01:44:57;97626.88;;;12.03;100.00
5284;BME280;15377;48.540;9.268;2023-05-09T01:47:23;97614.91;;;11.92;100.00
5284;BME280;15377;48.540;9.268;2023-05-09T01:49:51;97628.69;;;11.92;100.00
5284;BME280;15377;48.540;9.268;2023-05-09T01:52:18;97621.81;;;11.87;100.00
5284;BME280;15377;48.540;9.268;2023-05-09T01:54:44;97617.09;;;11.88;100.00
5284;BME280;15377;48.540;9.268;2023-05-09T01:57:11;97621.09;;;11.87;100.00
5284;BME280;15377;48.540;9.268;2023-05-09T01:59:39;97611.00;;;11.84;100.00
5284;BME280;15377;48.540;9.268;2023-05-09T02:02:06;97619.56;;;11.86;100.00
5284;BME280;15377;48.540;9.268;2023-05-09T02:04:32;97620.91;;;11.90;100.00
5284;BME280;15377;48.540;9.268;2023-05-09T02:07:00;97606.63;;;11.77;100.00
5284;BME280;15377;48.540;9.268;2023-05-09T02:09:26;97609.56;;;11.74;100.00
5284;BME280;15377;48.540;9.268;2023-05-09T02:11:51;97613.19;;;11.80;100.00
5284;BME280;15377;48.540;9.268;2023-05-09T02:14:17;97604.31;;;11.76;100.00
5284;BME280;15377;48.540;9.268;2023-05-09T02:16:43;97610.69;;;11.82;100.00
5284;BME280;15377;48.540;9.268;2023-05-09T02:19:08;97612.91;;;11.78;100.00
5284;BME280;15377;48.540;9.268;2023-05-09T02:21:34;97575.25;;;11.60;100.00
5284;BME280;15377;48.540;9.268;2023-05-09T02:23:59;97606.44;;;11.81;100.00
5284;BME280;15377;48.540;9.268;2023-05-09T02:26:25;97615.38;;;11.90;100.00
5284;BME280;15377;48.540;9.268;2023-05-09T02:28:53;97606.81;;;11.88;100.00
5284;BME280;15377;48.540;9.268;2023-05-09T02:31:21;97579.59;;;11.67;100.00
5284;BME280;15377;48.540;9.268;2023-05-09T02:33:48;97595.41;;;11.81;100.00
5284;BME280;15377;48.540;9.268;2023-05-09T02:36:16;97612.34;;;12.03;100.00
5284;BME280;15377;48.540;9.268;2023-05-09T02:38:43;97608.72;;;11.97;100.00
5284;BME280;15377;48.540;9.268;2023-05-09T02:41:13;97611.38;;;12.06;100.00
5284;BME280;15377;48.540;9.268;2023-05-09T02:43:38;97606.22;;;11.99;100.00
5284;BME280;15377;48.540;9.268;2023-05-09T02:46:03;97596.53;;;12.03;100.00
5284;BME280;15377;48.540;9.268;2023-05-09T02:48:29;97600.72;;;11.99;100.00
5284;BME280;15377;48.540;9.268;2023-05-09T02:50:54;97591.22;;;12.00;100.00
5284;BME280;15377;48.540;9.268;2023-05-09T02:53:21;97595.00;;;12.02;100.00
5284;BME280;15377;48.540;9.268;2023-05-09T02:55:46;97590.66;;;11.96;100.00
5284;BME280;15377;48.540;9.268;2023-05-09T02:58:11;97593.31;;;11.90;100.00
5284;BME280;15377;48.540;9.268;2023-05-09T03:00:37;97586.47;;;11.86;100.00
5284;BME280;15377;48.540;9.268;2023-05-09T03:03:02;97570.88;;;11.83;100.00
5284;BME280;15377;48.540;9.268;2023-05-09T03:05:28;97586.09;;;11.93;100.00
5284;BME280;15377;48.540;9.268;2023-05-09T03:07:53;97584.00;;;11.88;100.00
5284;BME280;15377;48.540;9.268;2023-05-09T03:10:19;97568.97;;;11.74;100.00
5284;BME280;15377;48.540;9.268;2023-05-09T03:12:44;97579.03;;;11.77;100.00
5284;BME280;15377;48.540;9.268;2023-05-09T03:15:10;97577.53;;;11.76;100.00
5284;BME280;15377;48.540;9.268;2023-05-09T03:17:35;97567.84;;;11.66;100.00
5284;BME280;15377;48.540;9.268;2023-05-09T03:20:00;97564.97;;;11.61;100.00
5284;BME280;15377;48.540;9.268;2023-05-09T03:22:26;97562.44;;;11.48;100.00
5284;BME280;15377;48.540;9.268;2023-05-09T03:24:51;97560.75;;;11.51;100.00
5284;BME280;15377;48.540;9.268;2023-05-09T03:27:17;97551.25;;;11.52;100.00
5284;BME280;15377;48.540;9.268;2023-05-09T03:29:42;97552.38;;;11.45;100.00
5284;BME280;15377;48.540;9.268;2023-05-09T03:32:07;97556.19;;;11.48;100.00
5284;BME280;15377;48.540;9.268;2023-05-09T03:34:32;97552.56;;;11.42;100.00
5284;BME280;15377;48.540;9.268;2023-05-09T03:36:58;97569.47;;;11.35;100.00
5284;BME280;15377;48.540;9.268;2023-05-09T03:39:23;97561.28;;;11.26;100.00
5284;BME280;15377;48.540;9.268;2023-05-09T03:41:49;97556.31;;;11.15;100.00
5284;BME280;15377;48.540;9.268;2023-05-09T03:44:14;97549.09;;;11.18;100.00
5284;BME280;15377;48.540;9.268;2023-05-09T03:46:40;97558.81;;;11.28;100.00
5284;BME280;15377;48.540;9.268;2023-05-09T03:49:05;97555.22;;;11.22;100.00
5284;BME280;15377;48.540;9.268;2023-05-09T03:51:30;97554.78;;;11.14;100.00
5284;BME280;15377;48.540;9.268;2023-05-09T03:53:56;97556.22;;;11.10;100.00
5284;BME280;15377;48.540;9.268;2023-05-09T03:56:22;97552.31;;;11.16;100.00
5284;BME280;15377;48.540;9.268;2023-05-09T03:58:47;97556.13;;;11.19;100.00
5284;BME280;15377;48.540;9.268;2023-05-09T04:01:13;97556.91;;;11.19;100.00
5284;BME280;15377;48.540;9.268;2023-05-09T04:03:39;97553.28;;;11.13;100.00
5284;BME280;15377;48.540;9.268;2023-05-09T04:06:05;97551.00;;;11.12;100.00
5284;BME280;15377;48.540;9.268;2023-05-09T04:08:31;97562.19;;;11.08;100.00
5284;BME280;15377;48.540;9.268;2023-05-09T04:10:57;97560.03;;;10.89;100.00
5284;BME280;15377;48.540;9.268;2023-05-09T04:13:22;97552.44;;;10.84;100.00
5284;BME280;15377;48.540;9.268;2023-05-09T04:15:48;97572.16;;;10.82;100.00
5284;BME280;15377;48.540;9.268;2023-05-09T04:18:13;97558.28;;;10.77;100.00
5284;BME280;15377;48.540;9.268;2023-05-09T04:20:38;97557.34;;;10.80;100.00
5284;BME280;15377;48.540;9.268;2023-05-09T04:23:04;97557.00;;;10.87;100.00
5284;BME280;15377;48.540;9.268;2023-05-09T04:25:30;97551.78;;;10.89;100.00
5284;BME280;15377;48.540;9.268;2023-05-09T04:27:56;97559.31;;;11.03;100.00
5284;BME280;15377;48.540;9.268;2023-05-09T04:30:22;97564.13;;;11.17;100.00
5284;BME280;15377;48.540;9.268;2023-05-09T04:32:47;97556.50;;;11.12;100.00
5284;BME280;15377;48.540;9.268;2023-05-09T04:35:13;97562.41;;;11.19;100.00
5284;BME280;15377;48.540;9.268;2023-05-09T04:37:38;97560.41;;;11.20;100.00
5284;BME280;15377;48.540;9.268;2023-05-09T04:40:04;97564.31;;;11.28;100.00
5284;BME280;15377;48.540;9.268;2023-05-09T04:42:30;97567.38;;;11.30;100.00
5284;BME280;15377;48.540;9.268;2023-05-09T04:44:58;97572.22;;;11.35;100.00
5284;BME280;15377;48.540;9.268;2023-05-09T04:47:24;97569.28;;;11.38;100.00
5284;BME280;15377;48.540;9.268;2023-05-09T04:49:49;97565.09;;;11.43;100.00
5284;BME280;15377;48.540;9.268;2023-05-09T04:52:14;97556.00;;;11.37;100.00
5284;BME280;15377;48.540;9.268;2023-05-09T04:54:40;97570.25;;;11.50;100.00
5284;BME280;15377;48.540;9.268;2023-05-09T04:57:05;97559.22;;;11.50;100.00
5284;BME280;15377;48.540;9.268;2023-05-09T04:59:31;97566.50;;;11.62;100.00
5284;BME280;15377;48.540;9.268;2023-05-09T05:01:56;97550.34;;;11.69;100.00
5284;BME280;15377;48.540;9.268;2023-05-09T05:04:22;97556.53;;;11.79;100.00
5284;BME280;15377;48.540;9.268;2023-05-09T05:06:47;97549.66;;;11.89;100.00
5284;BME280;15377;48.540;9.268;2023-05-09T05:09:12;97558.69;;;12.04;100.00
5284;BME280;15377;48.540;9.268;2023-05-09T05:11:38;97558.84;;;12.15;100.00
5284;BME280;15377;48.540;9.268;2023-05-09T05:14:03;97550.09;;;12.16;100.00
5284;BME280;15377;48.540;9.268;2023-05-09T05:16:28;97557.53;;;12.25;100.00
5284;BME280;15377;48.540;9.268;2023-05-09T05:18:54;97551.81;;;12.28;100.00
5284;BME280;15377;48.540;9.268;2023-05-09T05:21:19;97550.16;;;12.36;100.00
5284;BME280;15377;48.540;9.268;2023-05-09T05:23:45;97540.44;;;12.41;100.00
5284;BME280;15377;48.540;9.268;2023-05-09T05:26:10;97534.22;;;12.46;100.00
5284;BME280;15377;48.540;9.268;2023-05-09T05:28:35;97544.00;;;12.61;100.00
5284;BME280;15377;48.540;9.268;2023-05-09T05:31:01;97539.31;;;12.67;100.00
5284;BME280;15377;48.540;9.268;2023-05-09T05:33:26;97539.25;;;12.82;100.00
5284;BME280;15377;48.540;9.268;2023-05-09T05:35:51;97521.69;;;12.85;100.00
5284;BME280;15377;48.540;9.268;2023-05-09T05:38:17;97529.44;;;13.01;100.00
5284;BME280;15377;48.540;9.268;2023-05-09T05:40:42;97526.34;;;13.13;100.00
5284;BME280;15377;48.540;9.268;2023-05-09T05:43:07;97529.56;;;13.32;100.00
5284;BME280;15377;48.540;9.268;2023-05-09T05:45:33;97526.91;;;13.43;100.00
5284;BME280;15377;48.540;9.268;2023-05-09T05:47:58;97510.56;;;13.39;100.00
5284;BME280;15377;48.540;9.268;2023-05-09T05:50:23;97530.59;;;13.60;100.00
5284;BME280;15377;48.540;9.268;2023-05-09T05:52:49;97512.59;;;13.70;100.00
5284;BME280;15377;48.540;9.268;2023-05-09T05:55:14;97516.25;;;13.87;100.00
5284;BME280;15377;48.540;9.268;2023-05-09T05:57:40;97512.34;;;13.99;100.00
5284;BME280;15377;48.540;9.268;2023-05-09T06:00:06;97518.69;;;14.05;100.00
5284;BME280;15377;48.540;9.268;2023-05-09T06:02:35;97516.22;;;14.12;100.00
5284;BME280;15377;48.540;9.268;2023-05-09T06:05:01;97513.81;;;14.25;100.00
5284;BME280;15377;48.540;9.268;2023-05-09T06:07:28;97510.31;;;14.30;100.00
5284;BME280;15377;48.540;9.268;2023-05-09T06:09:53;97505.53;;;14.31;100.00
5284;BME280;15377;48.540;9.268;2023-05-09T06:12:18;97517.28;;;14.57;100.00
5284;BME280;15377;48.540;9.268;2023-05-09T06:14:44;97499.97;;;14.67;100.00
5284;BME280;15377;48.540;9.268;2023-05-09T06:17:09;97499.72;;;14.71;100.00
5284;BME280;15377;48.540;9.268;2023-05-09T06:19:35;97497.44;;;14.64;100.00
5284;BME280;15377;48.540;9.268;2023-05-09T06:22:01;97504.09;;;14.88;100.00
5284;BME280;15377;48.540;9.268;2023-05-09T06:24:26;97504.94;;;15.10;100.00
5284;BME280;15377;48.540;9.268;2023-05-09T06:26:51;97502.97;;;15.27;100.00
5284;BME280;15377;48.540;9.268;2023-05-09T06:29:17;97495.97;;;15.48;100.00
5284;BME280;15377;48.540;9.268;2023-05-09T06:31:42;97493.97;;;15.54;100.00
5284;BME280;15377;48.540;9.268;2023-05-09T06:34:08;97501.06;;;15.77;100.00
5284;BME280;15377;48.540;9.268;2023-05-09T06:36:33;97498.53;;;15.90;100.00
5284;BME280;15377;48.540;9.268;2023-05-09T06:38:59;97497.00;;;16.11;100.00
5284;BME280;15377;48.540;9.268;2023-05-09T06:41:25;97502.81;;;16.30;100.00
5284;BME280;15377;48.540;9.268;2023-05-09T06:43:51;97510.38;;;16.46;100.00
5284;BME280;15377;48.540;9.268;2023-05-09T06:46:16;97507.81;;;16.59;100.00
5284;BME280;15377;48.540;9.268;2023-05-09T06:48:42;97527.69;;;16.79;100.00
5284;BME280;15377;48.540;9.268;2023-05-09T06:51:07;97517.03;;;16.94;100.00
5284;BME280;15377;48.540;9.268;2023-05-09T06:53:33;97525.75;;;17.26;100.00
5284;BME280;15377;48.540;9.268;2023-05-09T06:55:58;97518.84;;;17.49;100.00
5284;BME280;15377;48.540;9.268;2023-05-09T06:58:24;97532.94;;;17.56;100.00
5284;BME280;15377;48.540;9.268;2023-05-09T07:00:49;97529.28;;;17.26;100.00
5284;BME280;15377;48.540;9.268;2023-05-09T07:03:15;97537.25;;;17.00;100.00
5284;BME280;15377;48.540;9.268;2023-05-09T07:05:41;97538.28;;;16.97;100.00
5284;BME280;15377;48.540;9.268;2023-05-09T07:08:06;97537.59;;;16.64;100.00
5284;BME280;15377;48.540;9.268;2023-05-09T07:10:31;97537.31;;;16.73;100.00
5284;BME280;15377;48.540;9.268;2023-05-09T07:12:57;97519.63;;;16.81;100.00
5284;BME280;15377;48.540;9.268;2023-05-09T07:15:22;97523.13;;;16.87;100.00
5284;BME280;15377;48.540;9.268;2023-05-09T07:17:48;97523.63;;;16.91;100.00
5284;BME280;15377;48.540;9.268;2023-05-09T07:20:13;97503.28;;;17.18;100.00
5284;BME280;15377;48.540;9.268;2023-05-09T07:22:38;97518.16;;;17.37;100.00
5284;BME280;15377;48.540;9.268;2023-05-09T07:25:06;97515.06;;;17.46;100.00
5284;BME280;15377;48.540;9.268;2023-05-09T07:27:32;97502.75;;;17.31;100.00
5284;BME280;15377;48.540;9.268;2023-05-09T07:29:57;97505.66;;;17.49;100.00
5284;BME280;15377;48.540;9.268;2023-05-09T07:32:22;97496.94;;;17.69;100.00
5284;BME280;15377;48.540;9.268;2023-05-09T07:34:48;97500.09;;;17.90;100.00
5284;BME280;15377;48.540;9.268;2023-05-09T07:37:13;97501.53;;;17.96;100.00
5284;BME280;15377;48.540;9.268;2023-05-09T07:39:38;97496.28;;;18.22;100.00
5284;BME280;15377;48.540;9.268;2023-05-09T07:42:04;97495.84;;;18.42;100.00
5284;BME280;15377;48.540;9.268;2023-05-09T07:44:29;97485.03;;;18.57;100.00
5284;BME280;15377;48.540;9.268;2023-05-09T07:46:55;97484.25;;;18.62;100.00
5284;BME280;15377;48.540;9.268;2023-05-09T07:49:23;97469.66;;;18.75;100.00
5284;BME280;15377;48.540;9.268;2023-05-09T07:51:49;97482.88;;;18.92;100.00
5284;BME280;15377;48.540;9.268;2023-05-09T07:54:14;97477.31;;;19.11;100.00
5284;BME280;15377;48.540;9.268;2023-05-09T07:56:40;97470.56;;;19.25;100.00
5284;BME280;15377;48.540;9.268;2023-05-09T07:59:05;97484.50;;;19.25;100.00
5284;BME280;15377;48.540;9.268;2023-05-09T08:01:30;97472.50;;;19.30;100.00
5284;BME280;15377;48.540;9.268;2023-05-09T08:03:56;97476.06;;;19.49;100.00
5284;BME280;15377;48.540;9.268;2023-05-09T08:06:21;97461.25;;;19.54;100.00
5284;BME280;15377;48.540;9.268;2023-05-09T08:08:46;97432.88;;;19.81;100.00
5284;BME280;15377;48.540;9.268;2023-05-09T08:11:12;97441.72;;;20.30;100.00
5284;BME280;15377;48.540;9.268;2023-05-09T08:13:37;97440.47;;;20.44;100.00
5284;BME280;15377;48.540;9.268;2023-05-09T08:16:03;97452.28;;;20.63;100.00
5284;BME280;15377;48.540;9.268;2023-05-09T08:18:28;97440.00;;;20.79;100.00
5284;BME280;15377;48.540;9.268;2023-05-09T08:20:53;97450.88;;;20.82;100.00
5284;BME280;15377;48.540;9.268;2023-05-09T08:23:19;97443.25;;;20.70;100.00
5284;BME280;15377;48.540;9.268;2023-05-09T08:25:44;97440.25;;;20.68;100.00
5284;BME280;15377;48.540;9.268;2023-05-09T08:28:10;97433.25;;;20.48;100.00
5284;BME280;15377;48.540;9.268;2023-05-09T08:30:35;97435.94;;;20.54;100.00
5284;BME280;15377;48.540;9.268;2023-05-09T08:33:01;97429.94;;;20.50;100.00
5284;BME280;15377;48.540;9.268;2023-05-09T08:35:26;97416.03;;;20.44;100.00
5284;BME280;15377;48.540;9.268;2023-05-09T08:37:51;97417.22;;;20.49;100.00
5284;BME280;15377;48.540;9.268;2023-05-09T08:40:17;97419.69;;;20.26;100.00
5284;BME280;15377;48.540;9.268;2023-05-09T08:42:44;97402.78;;;20.06;100.00
5284;BME280;15377;48.540;9.268;2023-05-09T08:45:13;97398.72;;;20.33;100.00
5284;BME280;15377;48.540;9.268;2023-05-09T08:47:40;97400.66;;;20.38;100.00
5284;BME280;15377;48.540;9.268;2023-05-09T08:50:07;97399.59;;;20.41;100.00
5284;BME280;15377;48.540;9.268;2023-05-09T08:52:34;97399.16;;;20.63;100.00
5284;BME280;15377;48.540;9.268;2023-05-09T08:55:00;97398.94;;;20.74;100.00
5284;BME280;15377;48.540;9.268;2023-05-09T08:57:26;97395.81;;;20.64;100.00
5284;BME280;15377;48.540;9.268;2023-05-09T08:59:52;97410.13;;;20.61;100.00
5284;BME280;15377;48.540;9.268;2023-05-09T09:02:19;97397.63;;;20.88;100.00
5284;BME280;15377;48.540;9.268;2023-05-09T09:04:46;97409.78;;;21.03;100.00
5284;BME280;15377;48.540;9.268;2023-05-09T09:07:12;97404.44;;;21.26;100.00
5284;BME280;15377;48.540;9.268;2023-05-09T09:09:43;97403.97;;;21.35;100.00
5284;BME280;15377;48.540;9.268;2023-05-09T09:12:10;97405.72;;;21.25;100.00
5284;BME280;15377;48.540;9.268;2023-05-09T09:14:38;97397.44;;;21.53;100.00
5284;BME280;15377;48.540;9.268;2023-05-09T09:17:07;97396.88;;;21.67;100.00
5284;BME280;15377;48.540;9.268;2023-05-09T09:19:34;97394.31;;;21.56;100.00
5284;BME280;15377;48.540;9.268;2023-05-09T09:22:03;97388.13;;;21.71;100.00
5284;BME280;15377;48.540;9.268;2023-05-09T09:24:29;97387.06;;;21.40;100.00
5284;BME280;15377;48.540;9.268;2023-05-09T09:26:55;97390.06;;;21.42;100.00
5284;BME280;15377;48.540;9.268;2023-05-09T09:29:20;97383.69;;;21.42;100.00
5284;BME280;15377;48.540;9.268;2023-05-09T09:31:50;97372.59;;;21.49;100.00
5284;BME280;15377;48.540;9.268;2023-05-09T09:34:21;97377.47;;;21.36;100.00
5284;BME280;15377;48.540;9.268;2023-05-09T09:36:47;97369.94;;;21.44;100.00
5284;BME280;15377;48.540;9.268;2023-05-09T09:39:13;97376.28;;;21.65;100.00
5284;BME280;15377;48.540;9.268;2023-05-09T09:41:39;97367.00;;;21.90;100.00
5284;BME280;15377;48.540;9.268;2023-05-09T09:44:15;97360.13;;;21.99;100.00
5284;BME280;15377;48.540;9.268;2023-05-09T09:46:53;97357.94;;;22.05;100.00
5284;BME280;15377;48.540;9.268;2023-05-09T09:49:23;97355.66;;;22.52;100.00
5284;BME280;15377;48.540;9.268;2023-05-09T09:51:50;97336.69;;;22.73;100.00
5284;BME280;15377;48.540;9.268;2023-05-09T09:54:16;97356.41;;;23.53;100.00
5284;BME280;15377;48.540;9.268;2023-05-09T09:56:49;97340.91;;;23.89;100.00
5284;BME280;15377;48.540;9.268;2023-05-09T09:59:17;97341.94;;;24.46;100.00
5284;BME280;15377;48.540;9.268;2023-05-09T10:02:02;97344.41;;;25.36;100.00
5284;BME280;15377;48.540;9.268;2023-05-09T10:04:38;97328.66;;;25.82;100.00
5284;BME280;15377;48.540;9.268;2023-05-09T10:07:08;97333.56;;;26.06;95.00
5284;BME280;15377;48.540;9.268;2023-05-09T10:09:35;97319.63;;;26.08;95.20
5284;BME280;15377;48.540;9.268;2023-05-09T10:12:06;97323.81;;;26.41;96.03
5284;BME280;15377;48.540;9.268;2023-05-09T10:14:33;97315.03;;;26.54;91.77
5284;BME280;15377;48.540;9.268;2023-05-09T10:17:01;97317.25;;;26.73;86.79
5284;BME280;15377;48.540;9.268;2023-05-09T10:19:28;97315.50;;;26.26;92.29
5284;BME280;15377;48.540;9.268;2023-05-09T10:21:56;97308.84;;;26.31;88.36
5284;BME280;15377;48.540;9.268;2023-05-09T10:24:40;97298.69;;;25.94;91.07
5284;BME280;15377;48.540;9.268;2023-05-09T10:27:10;97295.16;;;26.79;91.83
5284;BME280;15377;48.540;9.268;2023-05-09T10:29:50;97296.13;;;27.70;89.70
5284;BME280;15377;48.540;9.268;2023-05-09T10:33:00;97293.28;;;28.25;83.51
5284;BME280;15377;48.540;9.268;2023-05-09T10:35:31;97288.97;;;28.05;75.61
5284;BME280;15377;48.540;9.268;2023-05-09T10:37:58;97286.63;;;27.39;78.71
5284;BME280;15377;48.540;9.268;2023-05-09T10:40:27;97280.38;;;27.41;76.78
5284;BME280;15377;48.540;9.268;2023-05-09T10:42:52;97279.47;;;27.74;78.59
5284;BME280;15377;48.540;9.268;2023-05-09T10:45:19;97265.81;;;27.80;76.73
5284;BME280;15377;48.540;9.268;2023-05-09T10:47:47;97260.88;;;28.45;77.35
5284;BME280;15377;48.540;9.268;2023-05-09T10:50:14;97265.16;;;28.65;71.04
5284;BME280;15377;48.540;9.268;2023-05-09T10:55:35;97246.78;;;30.05;71.15
5284;BME280;15377;48.540;9.268;2023-05-09T10:58:17;97236.47;;;30.95;64.11
5284;BME280;15377;48.540;9.268;2023-05-09T11:00:44;97234.06;;;30.48;56.82
5284;BME280;15377;48.540;9.268;2023-05-09T11:03:10;97222.72;;;30.06;58.28
5284;BME280;15377;48.540;9.268;2023-05-09T11:05:39;97220.16;;;30.31;57.86
5284;BME280;15377;48.540;9.268;2023-05-09T11:08:21;97217.06;;;31.36;61.53
5284;BME280;15377;48.540;9.268;2023-05-09T11:10:47;97198.22;;;31.88;54.62
5284;BME280;15377;48.540;9.268;2023-05-09T11:13:17;97199.47;;;31.74;52.14
5284;BME280;15377;48.540;9.268;2023-05-09T11:18:17;97183.78;;;30.71;55.16
5284;BME280;15377;48.540;9.268;2023-05-09T11:20:48;97186.97;;;31.33;57.02
5284;BME280;15377;48.540;9.268;2023-05-09T11:23:21;97173.88;;;32.21;56.20
5284;BME280;15377;48.540;9.268;2023-05-09T11:25:49;97180.16;;;33.06;53.47
5284;BME280;15377;48.540;9.268;2023-05-09T11:28:26;97170.88;;;33.19;47.10
5284;BME280;15377;48.540;9.268;2023-05-09T11:31:17;97160.59;;;32.62;49.68
5284;BME280;15377;48.540;9.268;2023-05-09T11:33:44;97166.78;;;31.86;52.64
5284;BME280;15377;48.540;9.268;2023-05-09T11:36:20;97160.16;;;29.83;53.95
5284;BME280;15377;48.540;9.268;2023-05-09T11:39:09;97150.13;;;28.31;60.12
5284;BME280;15377;48.540;9.268;2023-05-09T11:41:45;97142.09;;;27.99;62.05
5284;BME280;15377;48.540;9.268;2023-05-09T11:46:37;97130.72;;;29.06;56.85
5284;BME280;15377;48.540;9.268;2023-05-09T11:49:05;97134.13;;;28.74;60.82
5284;BME280;15377;48.540;9.268;2023-05-09T11:51:31;97129.09;;;28.53;65.10
5284;BME280;15377;48.540;9.268;2023-05-09T11:53:56;97128.84;;;28.02;62.80
5284;BME280;15377;48.540;9.268;2023-05-09T11:56:21;97114.88;;;27.85;63.90
5284;BME280;15377;48.540;9.268;2023-05-09T11:58:49;97113.66;;;27.69;64.77
5284;BME280;15377;48.540;9.268;2023-05-09T12:01:15;97114.72;;;28.02;60.40
5284;BME280;15377;48.540;9.268;2023-05-09T12:03:44;97091.19;;;27.61;65.27
5284;BME280;15377;48.540;9.268;2023-05-09T12:06:15;97091.03;;;27.59;67.98
5284;BME280;15377;48.540;9.268;2023-05-09T12:08:41;97089.72;;;27.89;67.31
5284;BME280;15377;48.540;9.268;2023-05-09T12:11:08;97091.03;;;28.07;65.72
5284;BME280;15377;48.540;9.268;2023-05-09T12:13:33;97077.09;;;28.58;65.97
5284;BME280;15377;48.540;9.268;2023-05-09T12:16:02;97073.06;;;28.92;58.98
5284;BME280;15377;48.540;9.268;2023-05-09T12:18:28;97077.22;;;28.01;58.39
5284;BME280;15377;48.540;9.268;2023-05-09T12:20:53;97063.78;;;28.11;62.57
5284;BME280;15377;48.540;9.268;2023-05-09T12:23:18;97071.16;;;28.85;63.66
5284;BME280;15377;48.540;9.268;2023-05-09T12:25:54;97067.63;;;28.35;62.31
5284;BME280;15377;48.540;9.268;2023-05-09T12:28:24;97059.94;;;28.07;65.49
5284;BME280;15377;48.540;9.268;2023-05-09T12:30:50;97051.44;;;27.69;64.75
5284;BME280;15377;48.540;9.268;2023-05-09T12:33:16;97045.19;;;27.33;65.79
5284;BME280;15377;48.540;9.268;2023-05-09T12:35:46;97054.19;;;26.67;66.79
5284;BME280;15377;48.540;9.268;2023-05-09T12:38:22;97041.44;;;26.39;69.24
5284;BME280;15377;48.540;9.268;2023-05-09T12:40:48;97028.75;;;27.03;67.96
5284;BME280;15377;48.540;9.268;2023-05-09T12:43:13;97021.03;;;28.17;66.05
5284;BME280;15377;48.540;9.268;2023-05-09T12:45:39;97021.34;;;28.61;60.31
5284;BME280;15377;48.540;9.268;2023-05-09T12:48:07;97023.72;;;28.15;62.21
5284;BME280;15377;48.540;9.268;2023-05-09T12:50:33;97020.78;;;27.56;62.21
5284;BME280;15377;48.540;9.268;2023-05-09T12:53:00;97009.56;;;27.01;62.97
5284;BME280;15377;48.540;9.268;2023-05-09T12:55:26;97012.94;;;26.71;69.63
5284;BME280;15377;48.540;9.268;2023-05-09T12:58:00;97003.22;;;26.55;69.71
5284;BME280;15377;48.540;9.268;2023-05-09T13:00:25;96998.66;;;26.69;70.48
5284;BME280;15377;48.540;9.268;2023-05-09T13:02:51;96999.25;;;26.77;67.81
5284;BME280;15377;48.540;9.268;2023-05-09T13:05:19;96991.25;;;26.83;67.54
5284;BME280;15377;48.540;9.268;2023-05-09T13:07:49;96992.78;;;26.94;67.65
5284;BME280;15377;48.540;9.268;2023-05-09T13:10:22;96999.81;;;26.30;65.78
5284;BME280;15377;48.540;9.268;2023-05-09T13:12:49;96990.50;;;26.01;67.75
5284;BME280;15377;48.540;9.268;2023-05-09T13:15:17;96988.13;;;26.07;73.41
5284;BME280;15377;48.540;9.268;2023-05-09T13:17:49;96982.88;;;25.94;74.42